Latest Weather Observations for Hopetoun North

IDW60801

Issued at 8:05 am WST Tuesday 21 October 2014 (issued every 30 minutes, with the page automatically refreshed every 10 minutes)

About weather observations | Map of weather stations | Latest weather observations for WA | Other Formats
Station Details ID: 009961 Name: HOPETOUN NORTH Lat: -33.93 Lon: 120.13 Height: 26.0 m
Data from the previous 72 hours. | See also: Recent months at Hopetoun North
Date/Time
WST
Temp
°C
App
Temp
°C
Dew
Point
Rel
Hum
%
Delta-T
°C
Wind Press
QNH
hPa
Press
MSL
hPa
Rain
since 9 am
mm
Dir
 
Spd
km/h
Gust
km/h
Spd
kts
Gust
kts
21/08:00am 15.2 13.3 14.1 93 0.6 W 17 22 9 12 1022.4 1022.3 1.2
21/07:30am 14.4 12.1 14.1 98 0.2 W 19 26 10 14 1021.9 1021.8 1.2
21/07:00am 14.1 13.3 13.9 99 0.1 W 11 20 6 11 1021.4 1021.3 1.2
21/06:30am 13.7 12.8 13.7 100 0.0 W 11 19 6 10 1021.0 1020.9 1.2
21/06:00am 13.4 12.8 13.4 100 0.0 W 9 15 5 8 1020.7 1020.6 1.2
21/05:30am 13.1 12.4 13.1 100 0.0 W 9 13 5 7 1020.3 1020.2 1.2
21/05:00am 13.3 12.2 13.1 99 0.1 W 11 17 6 9 1019.7 1019.6 1.2
21/04:30am 13.1 12.0 13.1 100 0.0 W 11 17 6 9 1019.2 1019.1 1.2
21/04:00am 13.8 12.0 13.2 96 0.3 W 15 20 8 11 1018.9 1018.8 1.2
21/03:30am 14.1 13.5 13.5 96 0.3 W 9 17 5 9 1018.6 1018.5 1.2
21/03:00am 14.5 12.9 13.9 96 0.3 WSW 15 20 8 11 1018.3 1018.2 1.2
21/02:30am 14.4 12.7 13.6 95 0.4 W 15 24 8 13 1018.0 1017.9 1.2
21/02:00am 14.4 12.3 13.6 95 0.4 W 17 26 9 14 1018.0 1017.9 1.2
21/01:30am 14.6 12.2 13.8 95 0.4 WSW 19 28 10 15 1017.9 1017.8 1.2
21/01:00am 14.4 11.7 13.6 95 0.4 WSW 20 32 11 17 1018.0 1017.9 1.2
21/12:30am 14.8 12.0 14.3 97 0.3 WSW 22 35 12 19 1018.3 1018.2 1.2
21/12:00am 15.0 12.1 13.9 93 0.6 W 22 32 12 17 1018.2 1018.1 1.2
 
Date/Time
WST
Temp
°C
App
Temp
°C
Dew
Point
Rel
Hum
%
Delta-T
°C
Wind Press
QNH
hPa
Press
MSL
hPa
Rain
since 9 am
mm
Dir
 
Spd
km/h
Gust
km/h
Spd
kts
Gust
kts
20/11:30pm 15.4 12.3 13.4 88 1.1 WSW 22 33 12 18 1017.9 1017.8 1.2
20/11:00pm 15.7 11.6 13.7 88 1.1 WSW 28 41 15 22 1017.7 1017.6 1.2
20/10:30pm 15.6 11.0 13.4 87 1.2 WSW 30 46 16 25 1017.8 1017.7 1.2
20/10:00pm 15.8 12.0 13.6 87 1.2 WSW 26 43 14 23 1018.0 1017.9 1.2
20/09:43pm 16.0 11.4 13.5 85 1.4 WSW 30 50 16 27 1018.0 1017.9 1.2
20/09:30pm 16.1 11.5 13.6 85 1.4 WSW 30 43 16 23 1017.9 1017.8 1.2
20/09:00pm 16.2 11.5 14.2 88 1.1 WSW 32 44 17 24 1017.9 1017.8 1.2
20/08:30pm 16.9 13.2 13.8 82 1.8 WSW 26 37 14 20 1017.6 1017.5 1.2
20/08:00pm 16.4 13.0 14.8 90 0.9 W 26 35 14 19 1017.4 1017.3 1.2
20/07:34pm 17.1 13.2 14.4 84 1.5 WSW 28 48 15 26 1016.9 1016.8 1.2
20/07:30pm 17.3 12.9 14.2 82 1.8 WSW 30 39 16 21 1016.9 1016.8 1.2
20/07:00pm 17.8 14.0 14.7 82 1.8 WSW 28 43 15 23 1016.1 1016.0 1.2
20/06:30pm 17.5 14.1 15.7 89 1.1 WSW 28 39 15 21 1015.5 1015.4 1.2
20/06:00pm 17.2 16.6 16.7 97 0.3 W 15 26 8 14 1014.8 1014.8 1.2
20/05:30pm 17.2 18.3 17.0 99 0.1 WSW 7 13 4 7 1014.2 1014.2 1.2
20/05:00pm 17.2 18.5 17.2 100 0.0 SW 6 7 3 4 1013.9 1013.9 1.2
20/04:30pm 17.2 18.5 17.2 100 0.0 WSW 6 9 3 5 1013.8 1013.8 1.2
20/04:00pm 17.1 18.2 17.1 100 0.0 SW 7 9 4 5 1013.4 1013.4 1.2
20/03:30pm 16.5 15.1 16.5 100 0.0 SW 19 24 10 13 1013.1 1013.1 0.8
20/03:00pm 18.3 17.6 17.3 94 0.6 SW 17 24 9 13 1012.6 1012.6 0.8
20/02:30pm 18.7 18.2 18.7 100 0.0 SW 19 26 10 14 1012.5 1012.5 0.8
20/02:00pm 18.9 17.3 16.5 86 1.4 SW 20 28 11 15 1012.1 1012.1 0.4
20/01:30pm 18.1 16.4 17.1 94 0.6 SW 22 30 12 16 1011.9 1011.9 0.4
20/01:00pm 18.6 18.3 17.3 92 0.8 W 15 26 8 14 1011.9 1011.9 0.4
20/12:30pm 19.5 17.1 14.3 72 3.0 SW 20 41 11 22 1011.4 1011.4 0.0
20/12:00pm 22.7 20.1 13.7 56 5.2 NW 20 28 11 15 1011.0 1011.0 0.0
20/11:30am 21.7 19.4 13.1 58 4.9 NW 17 30 9 16 1011.1 1011.1 0.0
20/11:00am 19.8 17.6 13.3 66 3.7 NW 17 28 9 15 1011.5 1011.5 0.0
20/10:30am 20.0 17.8 13.2 65 3.9 WNW 17 26 9 14 1011.6 1011.6 0.0
20/10:00am 19.7 18.0 13.6 68 3.5 NW 15 20 8 11 1011.6 1011.6 0.0
20/09:30am 18.3 15.6 13.0 71 3.0 NW 19 30 10 16 1011.8 1011.8 0.0
20/09:00am 17.8 15.5 12.9 73 2.7 WNW 17 24 9 13 1011.9 1011.9 7.4
20/08:30am 17.5 14.6 13.0 75 2.5 NNW 20 30 11 16 1011.8 1011.8 7.4
20/08:00am 17.0 14.4 13.3 79 2.1 NNW 19 28 10 15 1011.6 1011.6 7.4
20/07:30am 16.2 13.4 13.3 83 1.6 NNW 20 30 11 16 1011.4 1011.4 7.4
20/07:00am 15.1 12.5 13.8 92 0.7 N 20 32 11 17 1011.4 1011.4 7.4
20/06:30am 13.5 12.1 13.5 100 0.0 N 13 19 7 10 1011.3 1011.3 7.4
20/06:00am 12.8 10.4 12.8 100 0.0 N 17 22 9 12 1010.9 1010.9 7.4
20/05:30am 12.2 10.8 12.2 100 0.0 N 11 17 6 9 1010.9 1010.9 7.4
20/05:00am 11.5 10.6 11.5 100 0.0 NE 7 7 4 4 1010.6 1010.6 7.4
20/04:30am 12.1 10.7 12.1 100 0.0 NE 11 15 6 8 1010.0 1010.0 7.4
20/04:00am 11.6 10.4 11.6 100 0.0 NNE 9 13 5 7 1010.0 1010.0 7.4
20/03:30am 11.8 11.2 11.6 99 0.1 NNE 6 9 3 5 1009.9 1009.9 7.4
20/03:00am 12.8 11.9 12.6 99 0.1 N 9 15 5 8 1009.9 1009.9 7.4
20/02:30am 12.5 12.1 12.5 100 0.0 N 6 7 3 4 1010.0 1010.0 7.4
20/02:00am 12.4 11.8 12.4 100 0.0 N 7 9 4 5 1009.9 1009.9 7.2
20/01:30am 12.4 11.8 12.4 100 0.0 N 7 9 4 5 1010.0 1010.0 7.2
20/01:00am 12.4 11.8 12.4 100 0.0 N 7 11 4 6 1010.2 1010.2 7.2
20/12:30am 12.5 12.1 12.3 99 0.1 N 6 7 3 4 1010.1 1010.1 7.2
20/12:00am 13.0 12.2 12.8 99 0.1 NNE 9 11 5 6 1010.2 1010.2 7.2
 
Date/Time
WST
Temp
°C
App
Temp
°C
Dew
Point
Rel
Hum
%
Delta-T
°C
Wind Press
QNH
hPa
Press
MSL
hPa
Rain
since 9 am
mm
Dir
 
Spd
km/h
Gust
km/h
Spd
kts
Gust
kts
19/11:30pm 13.7 12.2 13.1 96 0.3 NNE 13 17 7 9 1009.8 1009.8 7.2
19/11:00pm 14.5 11.7 13.2 92 0.7 NNE 20 30 11 16 1010.0 1010.0 7.2
19/10:30pm 15.1 11.7 12.6 85 1.4 NNE 22 32 12 17 1009.9 1009.9 7.2
19/10:00pm 15.3 12.4 12.8 85 1.4 NNE 20 32 11 17 1009.9 1009.9 7.2
19/09:30pm 14.9 11.3 13.1 89 1.0 NNE 24 32 13 17 1010.1 1010.1 7.2
19/09:00pm 15.9 12.4 14.4 91 0.9 NE 26 39 14 21 1011.0 1011.0 7.2
19/08:30pm 15.9 15.0 15.9 100 0.0 N 15 20 8 11 1011.7 1011.7 7.2
19/08:00pm 15.8 15.3 15.8 100 0.0 N 13 20 7 11 1011.6 1011.6 7.2
19/07:30pm 15.7 15.1 15.7 100 0.0 N 13 19 7 10 1011.2 1011.2 7.2
19/07:00pm 15.9 16.5 15.9 100 0.0 NNE 7 9 4 5 1010.3 1010.3 7.2
19/06:30pm 16.3 17.3 16.3 100 0.0 NE 6 7 3 4 1009.9 1009.9 7.2
19/06:00pm 17.0 17.7 17.0 100 0.0 E 9 11 5 6 1009.2 1009.2 7.2
19/05:30pm 17.2 18.0 17.2 100 0.0 ESE 9 13 5 7 1008.8 1008.8 7.2
19/05:00pm 17.1 15.9 17.1 100 0.0 ESE 19 26 10 14 1009.3 1009.3 7.2
19/04:30pm 16.5 14.1 16.5 100 0.0 ESE 24 37 13 20 1010.1 1010.1 7.2
19/04:00pm 15.8 11.6 15.8 100 0.0 ESE 32 52 17 28 1010.8 1010.8 7.2
19/03:51pm 15.8 11.6 15.8 100 0.0 ESE 32 52 17 28 1010.8 1010.8 7.2
19/03:30pm 16.2 11.9 15.4 95 0.5 ESE 32 48 17 26 1011.1 1011.1 7.2
19/03:00pm 16.1 11.0 14.8 92 0.7 ESE 35 54 19 29 1011.0 1011.0 7.2
19/02:30pm 16.2 10.8 14.9 92 0.7 ESE 37 56 20 30 1011.9 1011.9 7.2
19/02:00pm 16.0 9.7 14.7 92 0.7 ESE 41 61 22 33 1011.2 1011.2 7.2
19/01:30pm 15.7 10.0 15.1 96 0.3 ESE 39 63 21 34 1012.0 1012.0 7.2
19/01:01pm 15.3 9.1 15.0 98 0.2 SE 41 63 22 34 1012.4 1012.4 7.2
19/01:00pm 15.3 9.2 15.1 99 0.1 SE 41 59 22 32 1012.4 1012.4 7.2
19/12:31pm 14.7 9.6 14.7 100 0.0 SE 35 56 19 30 1013.4 1013.4 7.2
19/12:30pm 14.7 9.2 14.7 100 0.0 SE 37 56 20 30 1013.4 1013.4 7.2
19/12:12pm 14.7 9.9 14.7 100 0.0 ESE 33 54 18 29 1014.3 1014.3 7.2
19/12:00pm 14.6 9.8 14.6 100 0.0 ESE 33 50 18 27 1014.9 1014.9 7.0
19/11:30am 14.7 9.9 14.7 100 0.0 ESE 33 52 18 28 1015.3 1015.3 6.2
19/11:00am 14.8 9.6 14.6 99 0.1 ESE 35 56 19 30 1015.7 1015.6 6.0
19/10:30am 14.8 8.6 14.8 100 0.0 SE 41 61 22 33 1015.9 1015.8 6.0
19/10:11am 14.6 9.4 14.6 100 0.0 SE 35 54 19 29 1016.4 1016.3 5.8
19/10:00am 14.7 9.2 14.7 100 0.0 ESE 37 54 20 29 1016.5 1016.4 5.6
19/09:38am 14.0 9.0 14.0 100 0.0 SE 33 52 18 28 1017.3 1017.2 4.6
19/09:30am 14.2 9.3 14.2 100 0.0 ESE 33 46 18 25 1017.6 1017.5 3.6
19/09:16am 13.9 9.1 13.9 100 0.0 SE 32 50 17 27 1017.7 1017.6 1.8
19/09:00am 13.8 8.7 13.8 100 0.0 SE 33 48 18 26 1017.8 1017.7 29.4
19/08:30am 13.8 8.7 13.8 100 0.0 SE 33 50 18 27 1017.6 1017.5 27.4
19/08:00am 13.6 9.0 13.6 100 0.0 SE 30 43 16 23 1017.8 1017.7 26.4
19/07:30am 13.4 8.8 13.4 100 0.0 SE 30 44 16 24 1018.1 1018.0 25.2
19/07:00am 13.4 9.5 13.4 100 0.0 SE 26 39 14 21 1018.4 1018.3 21.4
19/06:30am 13.4 8.7 13.2 99 0.1 SE 30 48 16 26 1018.0 1017.9 20.4
19/06:03am 13.4 8.6 12.9 97 0.3 SE 30 48 16 26 1017.9 1017.8 19.8
19/06:00am 13.5 8.3 12.7 95 0.4 SE 32 48 17 26 1017.8 1017.7 19.6
19/05:30am 14.5 9.4 13.0 91 0.8 SE 32 44 17 24 1017.2 1017.1 19.2
19/05:09am 14.3 9.0 13.0 92 0.7 SE 33 54 18 29 1017.2 1017.1 19.2
19/05:00am 14.1 9.0 13.0 93 0.6 SE 32 44 17 24 1017.1 1017.0 19.2
19/04:33am 14.1 9.2 12.7 91 0.8 SE 30 48 16 26 1017.3 1017.2 19.2
19/04:30am 13.8 8.9 12.7 93 0.6 SE 30 44 16 24 1017.2 1017.1 19.2
19/04:02am 13.6 8.8 13.0 96 0.3 ESE 30 50 16 27 1017.5 1017.4 19.2
19/04:00am 13.7 9.5 13.4 98 0.2 ESE 28 44 15 24 1017.4 1017.3 19.2
19/03:30am 14.4 9.6 13.0 91 0.8 SE 30 44 16 24 1017.2 1017.1 19.0
19/03:00am 13.8 8.7 13.0 95 0.4 SE 32 52 17 28 1017.3 1017.2 19.0
19/02:54am 14.1 9.5 13.5 96 0.3 SE 30 52 16 28 1017.2 1017.1 19.0
19/02:30am 13.8 9.6 13.6 99 0.1 SE 28 44 15 24 1017.1 1017.0 19.0
19/02:00am 13.7 9.9 13.5 99 0.1 SE 26 41 14 22 1018.1 1018.0 18.8
19/01:30am 13.8 10.0 13.5 98 0.2 SE 26 43 14 23 1018.2 1018.1 18.8
19/01:00am 13.9 10.5 13.7 99 0.1 SE 24 37 13 20 1018.4 1018.3 18.8
19/12:30am 14.0 10.6 13.8 99 0.1 SE 24 39 13 21 1018.7 1018.6 18.8
19/12:00am 13.5 8.5 13.5 100 0.0 SE 32 44 17 24 1018.6 1018.5 18.8
 
Date/Time
WST
Temp
°C
App
Temp
°C
Dew
Point
Rel
Hum
%
Delta-T
°C
Wind Press
QNH
hPa
Press
MSL
hPa
Rain
since 9 am
mm
Dir
 
Spd
km/h
Gust
km/h
Spd
kts
Gust
kts
18/11:30pm 13.2 10.4 13.2 100 0.0 SE 20 35 11 19 1019.5 1019.4 18.6
18/11:00pm 13.1 9.5 13.1 100 0.0 SE 24 37 13 20 1019.3 1019.2 18.4
18/10:30pm 13.6 9.0 12.2 91 0.8 SE 28 43 15 23 1019.6 1019.5 18.4
18/10:00pm 13.8 9.5 12.0 89 1.0 SE 26 39 14 21 1019.2 1019.1 18.2
18/09:30pm 14.1 10.1 11.8 86 1.2 SE 24 35 13 19 1019.5 1019.4 18.2
18/09:00pm 13.5 10.0 12.2 92 0.7 SE 22 35 12 19 1019.6 1019.5 18.2
18/08:30pm 13.8 10.2 13.2 96 0.3 SE 24 35 13 19 1019.3 1019.2 18.2
18/08:00pm 13.5 10.4 13.5 100 0.0 SE 22 39 12 21 1018.9 1018.8 18.2
18/07:30pm 13.6 9.8 13.6 100 0.0 SE 26 37 14 20 1018.8 1018.7 17.8
18/07:00pm 13.3 8.6 13.3 100 0.0 SSE 30 44 16 24 1018.1 1018.0 17.6
18/06:30pm 14.5 10.3 12.4 87 1.1 SE 26 39 14 21 1017.4 1017.3 16.8
18/06:00pm 14.2 9.9 12.2 88 1.1 SE 26 37 14 20 1017.0 1016.9 16.8
18/05:30pm 13.6 9.7 13.3 98 0.2 SE 26 44 14 24 1016.7 1016.6 16.8
18/05:00pm 14.9 11.1 12.4 85 1.4 SE 24 35 13 19 1016.4 1016.3 16.6
18/04:30pm 14.9 10.7 12.4 85 1.4 SSE 26 37 14 20 1015.6 1015.5 16.6
18/04:00pm 15.2 11.6 13.1 87 1.2 SE 24 37 13 20 1014.9 1014.9 16.6
18/03:30pm 15.2 11.1 13.7 91 0.8 SE 28 39 15 21 1014.8 1014.8 16.6
18/03:00pm 14.6 10.7 14.4 99 0.1 SSE 28 43 15 23 1014.7 1014.7 16.6
18/02:30pm 14.2 10.9 13.9 98 0.2 SSE 24 37 13 20 1015.3 1015.3 16.4
18/02:00pm 14.8 10.6 14.6 99 0.1 SSE 30 41 16 22 1014.9 1014.9 16.4
18/01:30pm 14.7 10.9 14.7 100 0.0 SE 28 43 15 23 1015.0 1015.0 16.2
18/01:00pm 14.3 11.5 14.3 100 0.0 SSE 22 32 12 17 1016.0 1015.9 16.2
18/12:30pm 14.4 11.3 14.4 100 0.0 SSE 24 35 13 19 1014.9 1014.9 15.2
18/12:00pm 14.1 9.3 14.1 100 0.0 SSE 32 46 17 25 1014.2 1014.2 14.8
18/11:30am 13.8 8.9 13.8 100 0.0 S 32 46 17 25 1015.3 1015.3 13.4
18/11:00am 13.5 8.9 13.5 100 0.0 SSE 30 43 16 23 1015.2 1015.2 10.4
18/10:30am 13.4 9.2 13.4 100 0.0 SSE 28 46 15 25 1014.5 1014.5 7.0
18/10:21am 13.7 8.8 13.7 100 0.0 SSE 32 52 17 28 1014.8 1014.8 5.6
18/10:00am 13.4 7.4 13.4 100 0.0 S 37 54 20 29 1014.1 1014.1 4.4
18/09:30am 13.7 8.8 13.7 100 0.0 SSE 32 48 17 26 1014.4 1014.4 1.2
18/09:00am 13.9 9.1 13.9 100 0.0 SSE 32 44 17 24 1014.6 1014.6 24.4
18/08:30am 14.2 10.6 14.2 100 0.0 SSE 26 37 14 20 1014.7 1014.7 23.0

Other Formats:

Comma delimited format used in spreadsheet applications
http://www.bom.gov.au/fwo/IDW60801/IDW60801.95635.axf

JavaScript Object Notation format (JSON) in row-major order
http://www.bom.gov.au/fwo/IDW60801/IDW60801.95635.json